Time;durP1;ratioP1;P1;durP2;ratioP2;P2;SDS_P1;SDS_P2;PMS_P1;PMS_P2;Temp;Humidity;BMP_temperature;BMP_pressure;BME280_temperature;BME280_humidity;BME280_pressure;Samples;Min_cycle;Max_cycle;Signal;HPM_P1;HPM_P2
2022/09/03 00:02:01;;;;;;;9.10;4.88;;;;;;;17.21;72.80;95432.53;5046746;28;20118;-84
2022/09/03 00:04:43;;;;;;;6.25;4.80;;;;;;;17.05;73.42;95435.53;5044195;28;20037;-84
2022/09/03 00:07:21;;;;;;;6.50;4.60;;;;;;;17.12;72.93;95440.09;5045786;28;20574;-84
2022/09/03 00:09:48;;;;;;;8.15;4.70;;;;;;;17.10;72.73;95437.63;5027786;28;20052;-84
2022/09/03 00:12:18;;;;;;;8.85;4.82;;;;;;;17.03;72.89;95431.34;5042432;28;20452;-83
2022/09/03 00:14:50;;;;;;;6.78;4.60;;;;;;;16.91;73.55;95434.75;5028066;28;20039;-84
2022/09/03 00:17:18;;;;;;;7.70;4.35;;;;;;;17.12;73.28;95432.78;5026435;28;20058;-84
2022/09/03 00:19:59;;;;;;;5.60;4.35;;;;;;;17.17;72.92;95442.97;5043110;28;20025;-84
2022/09/03 00:22:31;;;;;;;6.03;4.38;;;;;;;17.10;72.82;95432.19;5027598;28;20086;-83
2022/09/03 00:24:59;;;;;;;5.90;4.27;;;;;;;17.12;72.55;95427.38;5042430;28;20425;-83
2022/09/03 00:27:25;;;;;;;6.85;4.68;;;;;;;17.13;72.62;95434.47;5028139;28;20028;-84
2022/09/03 00:30:02;;;;;;;7.30;4.63;;;;;;;17.11;72.52;95423.00;5042840;28;20036;-84
2022/09/03 00:32:46;;;;;;;6.30;4.38;;;;;;;17.13;72.70;95423.63;5032619;28;20427;-83
2022/09/03 00:35:27;;;;;;;6.15;3.95;;;;;;;17.17;72.20;95422.13;5047703;28;20087;-83
2022/09/03 00:37:52;;;;;;;6.47;3.80;;;;;;;17.16;72.08;95425.06;5029940;28;20032;-83
2022/09/03 00:40:33;;;;;;;5.85;3.80;;;;;;;17.10;72.44;95424.06;5048320;28;20021;-83
2022/09/03 00:43:37;;;;;;;5.32;4.07;;;;;;;17.15;71.73;95415.28;5047748;28;20025;-83
2022/09/03 00:46:17;;;;;;;5.60;4.30;;;;;;;17.15;72.22;95412.56;5046635;28;20110;-83
2022/09/03 00:49:20;;;;;;;8.02;4.07;;;;;;;17.27;71.17;95426.22;5048819;28;20507;-84
2022/09/03 00:52:34;;;;;;;6.97;4.40;;;;;;;17.27;71.65;95423.50;5047379;28;20036;-83
2022/09/03 00:55:18;;;;;;;6.20;4.30;;;;;;;17.13;72.13;95430.91;5028385;28;20056;-83
2022/09/03 00:57:53;;;;;;;5.03;3.80;;;;;;;17.20;72.12;95430.88;5029983;28;20025;-83
2022/09/03 01:00:19;;;;;;;8.75;4.05;;;;;;;17.17;71.71;95426.69;5040268;28;20112;-84
2022/09/03 01:02:50;;;;;;;6.68;4.20;;;;;;;17.08;72.57;95428.88;5014181;28;20024;-83
2022/09/03 01:05:25;;;;;;;8.32;4.43;;;;;;;16.92;72.74;95425.59;5047535;28;20036;-84
2022/09/03 01:08:04;;;;;;;5.28;3.78;;;;;;;17.05;72.42;95424.69;5047238;28;20697;-83
2022/09/03 01:10:54;;;;;;;6.68;4.00;;;;;;;17.12;71.77;95418.44;5047732;28;20044;-83
2022/09/03 01:13:38;;;;;;;6.10;4.10;;;;;;;17.17;71.80;95427.53;5045882;28;20082;-83
2022/09/03 01:16:31;;;;;;;5.63;4.10;;;;;;;17.11;71.72;95417.59;5047780;28;20028;-83
2022/09/03 01:19:35;;;;;;;7.18;4.30;;;;;;;17.17;71.51;95422.13;5047089;28;20028;-84
2022/09/03 01:22:09;;;;;;;5.20;4.22;;;;;;;17.17;71.69;95424.00;5045364;28;20087;-83
2022/09/03 01:25:06;;;;;;;9.63;4.88;;;;;;;17.17;71.84;95424.84;5048710;28;20104;-83
2022/09/03 01:28:00;;;;;;;5.57;3.90;;;;;;;17.16;71.79;95438.59;5047558;28;20182;-83
2022/09/03 01:30:26;;;;;;;8.52;5.10;;;;;;;17.12;72.00;95446.34;5046866;28;20033;-83
2022/09/03 01:33:02;;;;;;;8.35;4.72;;;;;;;16.98;71.92;95439.31;5030443;28;20589;-83
2022/09/03 01:35:42;;;;;;;7.65;5.03;;;;;;;17.10;71.77;95453.88;5046321;28;20025;-84
2022/09/03 01:38:41;;;;;;;6.75;4.63;;;;;;;17.05;71.90;95461.78;5045436;28;20021;-84
2022/09/03 01:44:03;;;;;;;5.80;4.65;;;;;;;16.90;72.49;95471.03;5046843;28;20151;-84
2022/09/03 01:46:39;;;;;;;7.65;5.00;;;;;;;16.83;72.45;95459.38;5046037;28;20037;-84
2022/09/03 01:49:13;;;;;;;5.93;4.70;;;;;;;16.89;72.02;95458.53;5029717;28;20495;-84
2022/09/03 01:51:40;;;;;;;6.50;4.97;;;;;;;16.87;72.32;95455.22;5046391;28;20033;-85
2022/09/03 01:54:05;;;;;;;6.25;4.88;;;;;;;16.98;71.94;95450.13;5046520;28;21007;-83
2022/09/03 01:57:00;;;;;;;5.85;4.57;;;;;;;16.86;72.25;95455.44;5046184;28;20049;-84
2022/09/03 01:59:41;;;;;;;6.68;4.85;;;;;;;16.94;72.32;95449.75;5045886;28;20385;-84
2022/09/03 02:02:19;;;;;;;6.13;4.43;;;;;;;16.92;72.24;95441.84;5046967;28;20036;-83
2022/09/03 02:05:07;;;;;;;9.07;5.57;;;;;;;16.89;71.73;95439.59;5044906;28;20025;-84
2022/09/03 02:07:35;;;;;;;6.13;4.43;;;;;;;16.91;71.85;95440.19;5047701;28;20021;-84
2022/09/03 02:10:04;;;;;;;6.63;5.07;;;;;;;16.76;72.49;95448.59;5045024;28;20060;-83
2022/09/03 02:12:32;;;;;;;6.95;5.15;;;;;;;16.76;72.28;95443.19;5045518;28;20079;-84
2022/09/03 02:15:02;;;;;;;7.90;4.85;;;;;;;16.80;72.51;95455.25;5045902;28;20021;-84
2022/09/03 02:17:30;;;;;;;8.70;5.18;;;;;;;16.69;72.88;95461.31;5028156;28;20029;-83
2022/09/03 02:19:55;;;;;;;7.80;5.55;;;;;;;16.75;72.70;95456.94;5030279;28;20025;-85
2022/09/03 02:22:20;;;;;;;9.38;5.35;;;;;;;16.69;72.51;95447.78;5027693;28;20036;-85
2022/09/03 02:24:46;;;;;;;7.45;5.38;;;;;;;16.65;73.09;95452.00;5046211;28;20044;-82
2022/09/03 02:27:11;;;;;;;7.90;5.10;;;;;;;16.83;72.06;95447.75;5028105;28;20342;-83
2022/09/03 02:29:37;;;;;;;6.60;5.10;;;;;;;16.86;72.35;95452.72;5029774;28;20518;-84
2022/09/03 02:32:02;;;;;;;12.30;5.78;;;;;;;16.89;71.94;95466.66;5029513;28;20017;-85
2022/09/03 02:34:28;;;;;;;7.32;5.40;;;;;;;16.97;71.65;95467.44;5044632;28;20047;-84
2022/09/03 02:36:54;;;;;;;7.82;5.20;;;;;;;16.97;71.67;95459.31;5046398;28;20512;-84
2022/09/03 02:39:19;;;;;;;7.97;5.80;;;;;;;16.85;72.31;95462.72;5043816;28;20051;-83
2022/09/03 02:41:56;;;;;;;8.05;5.90;;;;;;;16.76;72.23;95458.59;5047261;28;20028;-84
2022/09/03 02:44:29;;;;;;;8.30;5.80;;;;;;;16.92;72.04;95468.94;5027567;28;20021;-85
2022/09/03 02:47:02;;;;;;;8.32;5.95;;;;;;;16.95;71.61;95466.81;5029058;28;20017;-83
2022/09/03 02:49:28;;;;;;;9.00;5.63;;;;;;;16.87;72.02;95476.03;5028980;28;20025;-83
2022/09/03 02:51:57;;;;;;;9.15;6.00;;;;;;;16.90;71.96;95481.88;5011458;28;20057;-83
2022/09/03 02:54:23;;;;;;;8.43;5.72;;;;;;;16.92;72.36;95478.94;5028601;28;20029;-84
2022/09/03 02:56:48;;;;;;;9.20;6.28;;;;;;;17.02;71.72;95475.75;5045287;28;20048;-84
2022/09/03 02:59:16;;;;;;;7.60;5.53;;;;;;;17.00;72.02;95464.31;5029288;28;20029;-84
2022/09/03 03:01:42;;;;;;;10.05;5.88;;;;;;;17.02;71.47;95465.75;5045337;28;20044;-85
2022/09/03 03:04:07;;;;;;;8.32;5.15;;;;;;;17.03;71.29;95463.88;5045884;28;20029;-83
2022/09/03 03:06:33;;;;;;;9.95;6.07;;;;;;;17.05;71.29;95464.50;5028676;28;20025;-83
2022/09/03 03:08:58;;;;;;;7.72;5.93;;;;;;;17.05;71.00;95469.91;5027703;28;20049;-84
2022/09/03 03:11:25;;;;;;;8.27;6.13;;;;;;;17.05;71.25;95468.03;5030090;28;20025;-84
2022/09/03 03:13:50;;;;;;;8.73;6.50;;;;;;;16.99;71.29;95470.78;5045883;28;20491;-84
2022/09/03 03:16:16;;;;;;;9.55;5.90;;;;;;;17.01;71.37;95472.22;5047378;28;20021;-85
2022/09/03 03:18:41;;;;;;;9.77;6.05;;;;;;;17.12;70.68;95467.19;5044584;28;20025;-84
2022/09/03 03:21:11;;;;;;;8.63;5.80;;;;;;;17.11;71.26;95466.34;5046084;28;20029;-83
2022/09/03 03:23:37;;;;;;;15.52;6.40;;;;;;;17.16;71.03;95466.53;5044876;28;20040;-84
2022/09/03 03:26:07;;;;;;;9.75;5.63;;;;;;;17.18;70.81;95464.44;5029976;28;20033;-84
2022/09/03 03:28:33;;;;;;;9.30;6.22;;;;;;;17.20;71.28;95463.41;5014074;28;20112;-84
2022/09/03 03:31:09;;;;;;;8.75;5.97;;;;;;;17.23;71.23;95462.97;5028797;28;20039;-84
2022/09/03 03:33:34;;;;;;;8.00;5.95;;;;;;;17.24;70.92;95470.03;5046262;28;20060;-84
2022/09/03 03:36:08;;;;;;;9.40;6.18;;;;;;;17.29;70.62;95462.91;5027454;28;20051;-83
2022/09/03 03:38:34;;;;;;;12.20;6.28;;;;;;;17.19;70.97;95467.97;5045851;28;20107;-86
2022/09/03 03:41:06;;;;;;;11.35;6.57;;;;;;;17.12;71.32;95462.59;5028346;28;20027;-86
2022/09/03 03:43:31;;;;;;;9.07;5.90;;;;;;;17.15;70.47;95472.19;5045665;28;20029;-84
2022/09/03 03:45:57;;;;;;;8.30;6.20;;;;;;;17.01;70.83;95472.22;5044728;28;20275;-85
2022/09/03 03:48:23;;;;;;;8.68;6.15;;;;;;;17.03;70.66;95469.28;5026518;28;20082;-85
2022/09/03 03:50:49;;;;;;;7.80;6.15;;;;;;;16.94;71.22;95460.59;5027732;28;20594;-84
2022/09/03 03:53:14;;;;;;;7.97;5.85;;;;;;;16.95;71.10;95464.13;5026201;28;20021;-86
2022/09/03 03:55:40;;;;;;;10.85;6.00;;;;;;;16.88;71.06;95467.69;5044350;28;20033;-85
2022/09/03 03:58:06;;;;;;;9.13;5.43;;;;;;;16.98;70.83;95469.94;5043077;28;20024;-84
2022/09/03 04:00:36;;;;;;;11.48;5.97;;;;;;;16.89;71.33;95463.13;5043860;28;20025;-84
2022/09/03 04:03:02;;;;;;;8.35;5.80;;;;;;;16.83;71.64;95469.41;5044150;28;20013;-86
2022/09/03 04:05:28;;;;;;;9.98;5.85;;;;;;;16.67;72.00;95466.97;5044098;28;20476;-85
2022/09/03 04:07:53;;;;;;;9.43;5.75;;;;;;;16.74;71.65;95463.38;5045431;28;20044;-85
2022/09/03 04:10:18;;;;;;;10.40;6.40;;;;;;;16.69;72.07;95461.31;5043879;28;20056;-84
2022/09/03 04:12:44;;;;;;;8.38;6.10;;;;;;;16.81;71.27;95469.63;5045758;28;20409;-84
2022/09/03 04:15:09;;;;;;;10.68;6.03;;;;;;;16.73;71.20;95465.28;5042934;28;20102;-83
2022/09/03 04:17:35;;;;;;;10.43;6.05;;;;;;;16.67;72.07;95472.38;5046810;28;20025;-84
2022/09/03 04:20:01;;;;;;;10.45;6.07;;;;;;;16.73;71.78;95469.88;5044862;28;20033;-86
2022/09/03 04:22:28;;;;;;;8.95;5.50;;;;;;;16.64;72.08;95470.09;5044686;28;20025;-84
2022/09/03 04:24:53;;;;;;;8.48;6.03;;;;;;;16.77;71.36;95468.38;5028969;28;20028;-84
2022/09/03 04:27:19;;;;;;;8.45;6.38;;;;;;;16.69;71.83;95477.56;5043274;28;20029;-84
2022/09/03 04:29:44;;;;;;;9.45;6.10;;;;;;;16.78;71.66;95473.56;5046491;28;20037;-84
2022/09/03 04:34:54;;;;;;;9.95;6.72;;;;;;;16.87;71.06;95490.44;5046599;28;20059;-85
2022/09/03 04:37:19;;;;;;;11.48;6.15;;;;;;;16.69;72.01;95491.13;5046739;28;20029;-84
2022/09/03 04:39:45;;;;;;;8.70;6.20;;;;;;;16.75;72.09;95495.66;5027724;28;20040;-85
2022/09/03 04:42:10;;;;;;;10.13;6.43;;;;;;;16.52;72.65;95493.47;5046321;28;20136;-85
2022/09/03 04:44:37;;;;;;;8.63;6.30;;;;;;;16.63;72.30;95503.66;5045834;28;20036;-83
2022/09/03 04:47:04;;;;;;;8.43;6.00;;;;;;;16.56;72.13;95505.53;5046748;28;20032;-85
2022/09/03 04:49:29;;;;;;;8.52;6.22;;;;;;;16.53;72.66;95511.38;5043744;28;20254;-84
2022/09/03 04:51:55;;;;;;;8.88;6.18;;;;;;;16.56;72.26;95524.47;5044988;28;20029;-85
2022/09/03 04:54:20;;;;;;;8.57;6.38;;;;;;;16.44;72.91;95527.03;5045370;28;20025;-85
2022/09/03 04:56:46;;;;;;;9.50;6.50;;;;;;;16.46;72.72;95530.34;5047304;28;20478;-85
2022/09/03 04:59:12;;;;;;;8.68;6.80;;;;;;;16.57;72.05;95526.16;5034664;28;20040;-84
2022/09/03 05:01:38;;;;;;;8.93;6.13;;;;;;;16.40;72.84;95531.19;5045925;28;20498;-83
2022/09/03 05:04:04;;;;;;;8.32;6.22;;;;;;;16.52;72.03;95528.66;5027554;28;20025;-85
2022/09/03 05:06:30;;;;;;;7.75;5.72;;;;;;;16.57;72.18;95531.56;5026109;28;20028;-85
2022/09/03 05:08:56;;;;;;;9.10;6.55;;;;;;;16.39;72.27;95541.19;5043474;28;20044;-84
2022/09/03 05:11:22;;;;;;;7.95;5.88;;;;;;;16.47;72.29;95540.13;5042327;28;20037;-84
2022/09/03 05:13:48;;;;;;;7.68;5.80;;;;;;;16.44;71.72;95537.84;5044079;28;20033;-85
2022/09/03 05:16:14;;;;;;;10.90;5.78;;;;;;;16.51;71.95;95537.81;5027397;28;20119;-83
2022/09/03 05:18:40;;;;;;;7.50;5.47;;;;;;;16.49;71.81;95542.63;5030115;28;20337;-84
2022/09/03 05:21:08;;;;;;;8.80;6.07;;;;;;;16.36;72.48;95541.63;5030769;28;20107;-83
2022/09/03 05:23:41;;;;;;;9.40;5.55;;;;;;;16.50;71.70;95536.16;5029376;28;20033;-85
2022/09/03 05:26:08;;;;;;;8.80;6.07;;;;;;;16.44;71.85;95533.25;5031180;28;20024;-86
2022/09/03 05:28:35;;;;;;;8.15;5.85;;;;;;;16.40;72.28;95532.03;5046666;28;20207;-84
2022/09/03 05:31:08;;;;;;;8.43;6.00;;;;;;;16.56;71.92;95533.44;5046921;28;20029;-84
2022/09/03 05:33:35;;;;;;;9.30;5.53;;;;;;;16.60;71.35;95536.56;5046424;28;20392;-84
2022/09/03 05:36:01;;;;;;;9.95;6.30;;;;;;;16.56;71.26;95540.72;5046540;28;20534;-83
2022/09/03 05:38:27;;;;;;;7.75;5.80;;;;;;;16.63;71.31;95538.84;5013935;28;20116;-84
2022/09/03 05:40:52;;;;;;;6.75;5.00;;;;;;;16.65;71.02;95536.75;5029193;28;20021;-84
2022/09/03 05:43:19;;;;;;;7.63;5.55;;;;;;;16.72;71.50;95536.72;5047787;28;20036;-85
2022/09/03 05:45:45;;;;;;;9.05;6.43;;;;;;;16.74;71.14;95525.69;5047283;28;20056;-84
2022/09/03 05:48:10;;;;;;;9.68;5.75;;;;;;;16.47;72.11;95533.88;5032869;28;20040;-83
2022/09/03 05:50:36;;;;;;;8.15;5.82;;;;;;;16.65;71.31;95536.75;5030289;28;20033;-83
2022/09/03 05:53:01;;;;;;;9.65;5.78;;;;;;;16.74;71.16;95539.22;5048598;28;20406;-83
2022/09/03 05:55:27;;;;;;;7.72;5.70;;;;;;;16.83;70.74;95540.63;5047584;28;20079;-84
2022/09/03 05:57:53;;;;;;;8.10;5.82;;;;;;;16.82;71.08;95547.09;5045557;28;20029;-85
2022/09/03 06:00:19;;;;;;;13.13;5.85;;;;;;;17.02;70.00;95538.06;5029698;28;20086;-84
2022/09/03 06:02:53;;;;;;;9.77;5.88;;;;;;;17.00;70.32;95545.59;5031409;28;20028;-85
2022/09/03 06:05:19;;;;;;;8.32;5.80;;;;;;;17.23;69.94;95538.84;5051120;28;20021;-87
2022/09/03 06:07:47;;;;;;;8.13;5.80;;;;;;;17.18;69.35;95543.00;5014680;28;20381;-84
2022/09/03 06:10:15;;;;;;;7.68;5.63;;;;;;;17.20;69.08;95544.69;5019771;28;20041;-85
2022/09/03 06:12:41;;;;;;;7.10;4.78;;;;;;;17.21;69.17;95551.78;5048274;28;20025;-85
2022/09/03 06:15:07;;;;;;;8.52;5.10;;;;;;;17.27;69.26;95553.59;5036168;28;20104;-85
2022/09/03 06:17:32;;;;;;;8.20;4.95;;;;;;;17.28;68.71;95556.09;5053254;28;20055;-86
2022/09/03 06:19:58;;;;;;;9.30;5.32;;;;;;;17.39;68.68;95551.91;5053104;28;20494;-85
2022/09/03 06:22:27;;;;;;;6.47;5.05;;;;;;;17.57;67.45;95555.75;5046067;28;20021;-84
2022/09/03 06:24:53;;;;;;;8.10;5.50;;;;;;;17.32;68.66;95551.09;5045914;28;20029;-84
2022/09/03 06:27:20;;;;;;;7.28;5.35;;;;;;;17.61;67.19;95551.53;5029007;28;20079;-85
2022/09/03 06:29:45;;;;;;;8.63;5.53;;;;;;;17.55;67.79;95557.84;5044628;28;20116;-84
2022/09/03 06:32:11;;;;;;;6.65;5.10;;;;;;;17.46;68.02;95559.16;5045922;28;20115;-86
2022/09/03 06:34:36;;;;;;;9.32;6.03;;;;;;;17.51;68.52;95564.72;5048852;28;20025;-85
2022/09/03 06:37:01;;;;;;;7.68;5.35;;;;;;;17.60;67.74;95559.91;5046426;28;20025;-84
2022/09/03 06:39:27;;;;;;;6.72;4.68;;;;;;;17.54;68.20;95573.28;5028412;28;20379;-85
2022/09/03 06:41:53;;;;;;;6.90;5.28;;;;;;;17.61;67.24;95569.69;5044868;28;20025;-84
2022/09/03 06:44:20;;;;;;;6.85;5.00;;;;;;;17.60;67.27;95558.03;5049144;28;20029;-85
2022/09/03 06:46:47;;;;;;;6.38;4.80;;;;;;;17.56;67.48;95564.91;5046126;28;20033;-86
2022/09/03 06:49:12;;;;;;;5.85;4.72;;;;;;;17.69;66.97;95558.59;5046633;28;20029;-84
2022/09/03 06:51:38;;;;;;;5.80;4.53;;;;;;;17.64;67.27;95561.09;5027530;28;20063;-84
2022/09/03 06:54:05;;;;;;;8.10;5.20;;;;;;;17.51;67.86;95562.88;5046346;28;20503;-85
2022/09/03 06:56:31;;;;;;;6.88;5.15;;;;;;;17.46;67.86;95554.53;5045572;28;20098;-84
2022/09/03 06:58:58;;;;;;;6.97;5.28;;;;;;;17.47;68.26;95566.22;5044212;28;20020;-86
2022/09/03 07:01:29;;;;;;;6.55;4.70;;;;;;;17.57;67.58;95566.59;5012035;28;20554;-84
2022/09/03 07:03:56;;;;;;;8.55;5.30;;;;;;;17.61;68.14;95564.25;5027438;28;20028;-84
2022/09/03 07:06:27;;;;;;;6.75;5.10;;;;;;;17.72;67.54;95562.72;5028764;28;20107;-84
2022/09/03 07:08:53;;;;;;;6.63;5.35;;;;;;;17.78;66.99;95568.09;5027648;28;20041;-85
2022/09/03 07:11:21;;;;;;;6.30;4.93;;;;;;;17.99;66.99;95570.69;5044625;28;20032;-83
2022/09/03 07:13:48;;;;;;;6.15;4.82;;;;;;;17.90;66.76;95570.97;5027581;28;20025;-83
2022/09/03 07:16:18;;;;;;;7.38;5.20;;;;;;;18.09;65.93;95575.63;5027655;28;20033;-85
2022/09/03 07:18:44;;;;;;;7.13;5.20;;;;;;;18.14;66.26;95579.34;5028165;28;20467;-84
2022/09/03 07:21:11;;;;;;;7.10;5.40;;;;;;;18.22;65.45;95574.69;5027113;28;20024;-85
2022/09/03 07:23:37;;;;;;;8.25;5.55;;;;;;;18.36;65.89;95578.94;5044545;28;20240;-88
2022/09/03 07:26:04;;;;;;;5.75;4.60;;;;;;;18.17;65.55;95588.94;5027332;28;20071;-83
2022/09/03 07:28:32;;;;;;;7.28;5.60;;;;;;;18.39;65.14;95596.69;5028879;28;20025;-83
2022/09/03 07:31:10;;;;;;;6.75;4.82;;;;;;;18.63;64.04;95592.28;5028395;28;20057;-84
2022/09/03 07:33:36;;;;;;;8.05;5.47;;;;;;;18.63;64.10;95600.44;5044403;28;20036;-84
2022/09/03 07:36:04;;;;;;;5.18;4.35;;;;;;;18.53;63.54;95594.69;5027904;28;20028;-85
2022/09/03 07:38:30;;;;;;;7.93;4.70;;;;;;;18.61;64.29;95599.81;5042765;28;20032;-83
2022/09/03 07:40:59;;;;;;;7.72;4.95;;;;;;;18.75;63.90;95597.81;5045354;28;20024;-83
2022/09/03 07:43:28;;;;;;;7.18;4.75;;;;;;;19.00;62.51;95590.66;5026827;28;20021;-84
2022/09/03 07:45:56;;;;;;;5.50;4.57;;;;;;;18.82;63.01;95596.91;5044098;28;20029;-84
2022/09/03 07:48:22;;;;;;;6.07;4.70;;;;;;;19.05;63.90;95590.81;5043354;28;20076;-82
2022/09/03 07:50:48;;;;;;;7.30;5.07;;;;;;;19.10;63.46;95587.44;5043334;28;20033;-83
2022/09/03 07:53:15;;;;;;;7.13;4.88;;;;;;;18.74;64.00;95598.88;5027375;28;20036;-83
2022/09/03 07:55:41;;;;;;;6.07;4.90;;;;;;;18.82;63.46;95592.31;5042733;28;20028;-83
2022/09/03 07:58:07;;;;;;;6.82;4.80;;;;;;;18.70;63.99;95594.91;5045102;28;20036;-84
2022/09/03 08:00:32;;;;;;;9.07;5.63;;;;;;;18.88;63.12;95596.00;5043229;28;20021;-83
2022/09/03 08:03:04;;;;;;;6.50;4.80;;;;;;;18.97;62.37;95599.25;5027088;28;20025;-84
2022/09/03 08:05:31;;;;;;;5.85;4.78;;;;;;;19.12;62.02;95602.44;5027456;28;20568;-83
2022/09/03 08:07:59;;;;;;;6.00;4.65;;;;;;;19.15;62.71;95604.72;5043236;28;20143;-84
2022/09/03 08:10:27;;;;;;;6.25;4.20;;;;;;;19.14;62.55;95605.78;5045037;28;20036;-83
2022/09/03 08:12:52;;;;;;;6.70;4.35;;;;;;;19.11;62.58;95600.78;5042686;28;20100;-83
2022/09/03 08:15:18;;;;;;;6.57;5.28;;;;;;;19.12;62.68;95601.63;5043819;28;20103;-84
2022/09/03 08:17:44;;;;;;;6.97;4.88;;;;;;;19.32;61.94;95601.38;5025889;28;20025;-83
2022/09/03 08:20:09;;;;;;;6.03;4.47;;;;;;;19.40;62.50;95602.94;5026696;28;20021;-83
2022/09/03 08:22:36;;;;;;;5.30;4.32;;;;;;;19.45;61.48;95603.09;5042805;28;20084;-83
2022/09/03 08:25:02;;;;;;;5.43;4.40;;;;;;;19.48;61.40;95602.63;5044683;28;20396;-83
2022/09/03 08:27:27;;;;;;;5.75;4.60;;;;;;;19.61;61.03;95601.63;5043369;28;20527;-82
2022/09/03 08:29:53;;;;;;;7.15;5.07;;;;;;;19.64;61.22;95598.44;5044089;28;20397;-82
2022/09/03 08:32:19;;;;;;;5.20;4.13;;;;;;;19.73;60.56;95598.13;5044013;28;20022;-83
2022/09/03 08:34:45;;;;;;;7.32;4.70;;;;;;;19.50;61.10;95597.81;5044323;28;20428;-84
2022/09/03 08:37:12;;;;;;;6.30;4.20;;;;;;;19.59;60.70;95595.59;5044937;28;20025;-83
2022/09/03 08:39:37;;;;;;;5.70;4.53;;;;;;;19.70;60.57;95599.41;5042990;28;20059;-82
2022/09/03 08:42:03;;;;;;;6.40;4.40;;;;;;;19.68;60.82;95598.81;5045244;28;20021;-83
2022/09/03 08:44:53;;;;;;;5.43;4.20;;;;;;;19.68;61.10;95598.81;5044373;28;20464;-82
2022/09/03 08:47:40;;;;;;;5.40;3.80;;;;;;;19.93;60.30;95594.25;5026302;28;20573;-82
2022/09/03 08:50:26;;;;;;;8.90;4.85;;;;;;;19.70;61.66;95585.00;5026854;28;20033;-81
2022/09/03 08:53:06;;;;;;;6.47;4.75;;;;;;;19.59;61.44;95600.19;5046854;28;20039;-84
2022/09/03 08:55:52;;;;;;;4.93;4.30;;;;;;;19.67;60.77;95599.88;5015464;28;20095;-82
2022/09/03 08:58:26;;;;;;;5.85;4.65;;;;;;;19.67;61.33;95596.34;5047134;28;20781;-82
2022/09/03 09:01:17;;;;;;;7.25;4.57;;;;;;;19.92;60.33;95600.78;5031293;28;20467;-82
2022/09/03 09:04:20;;;;;;;5.85;4.50;;;;;;;20.02;59.90;95609.22;5047440;28;20319;-85
2022/09/03 09:07:04;;;;;;;5.90;4.57;;;;;;;20.13;59.96;95604.88;5048456;28;20338;-83
2022/09/03 09:09:53;;;;;;;5.13;4.18;;;;;;;20.05;59.92;95606.06;5013817;28;20578;-83
2022/09/03 09:12:40;;;;;;;6.88;4.28;;;;;;;20.11;59.42;95610.56;5047199;28;20250;-83
2022/09/03 09:15:39;;;;;;;5.40;4.30;;;;;;;20.28;59.11;95601.69;5047547;28;20506;-83
2022/09/03 09:18:35;;;;;;;6.18;4.63;;;;;;;20.37;59.78;95597.59;5047081;28;20061;-83
2022/09/03 09:21:14;;;;;;;5.40;4.40;;;;;;;20.47;59.27;95599.69;5048359;28;20021;-82
2022/09/03 09:23:45;;;;;;;5.10;4.32;;;;;;;20.41;58.83;95597.13;5046140;28;20029;-82
2022/09/03 09:26:12;;;;;;;5.03;3.92;;;;;;;20.26;58.70;95606.56;5047242;28;20127;-83
2022/09/03 09:28:38;;;;;;;4.80;3.85;;;;;;;20.42;59.00;95606.94;5030294;28;20033;-82
2022/09/03 09:31:08;;;;;;;5.30;3.78;;;;;;;20.49;58.78;95608.47;5046165;28;20025;-83
2022/09/03 09:33:34;;;;;;;6.25;4.18;;;;;;;20.69;57.52;95603.75;5030835;28;20101;-82
2022/09/03 09:36:05;;;;;;;5.55;3.80;;;;;;;20.68;57.79;95607.53;5045952;28;20223;-84
2022/09/03 09:38:32;;;;;;;6.70;4.60;;;;;;;20.66;57.66;95607.78;5046344;28;20219;-82
2022/09/03 09:41:28;;;;;;;5.47;3.85;;;;;;;20.79;58.00;95601.25;5029568;28;20173;-83
2022/09/03 09:44:01;;;;;;;4.32;3.63;;;;;;;20.83;56.93;95607.88;5045286;28;20041;-83
2022/09/03 09:46:35;;;;;;;4.18;3.70;;;;;;;20.78;57.88;95604.22;5046353;28;20060;-82
2022/09/03 09:49:00;;;;;;;5.10;4.35;;;;;;;20.99;57.52;95606.34;5045500;28;20044;-82
2022/09/03 09:51:30;;;;;;;4.35;3.72;;;;;;;21.03;55.93;95601.25;5029801;28;20048;-84
2022/09/03 09:54:18;;;;;;;4.60;3.63;;;;;;;21.12;55.68;95607.16;5029969;28;20029;-83
2022/09/03 09:56:57;;;;;;;5.75;3.55;;;;;;;21.17;55.15;95598.25;5045141;28;20025;-82
2022/09/03 09:59:22;;;;;;;4.75;3.85;;;;;;;21.12;56.68;95598.97;5031154;28;20037;-83
2022/09/03 10:01:47;;;;;;;4.68;3.72;;;;;;;20.97;55.51;95610.41;5045022;28;20040;-83
2022/09/03 10:04:20;;;;;;;3.90;3.40;;;;;;;21.18;54.93;95608.13;5046389;28;20099;-83
2022/09/03 10:07:00;;;;;;;4.53;3.80;;;;;;;21.20;55.31;95622.34;5047024;28;20044;-83
2022/09/03 10:09:29;;;;;;;4.28;3.65;;;;;;;21.08;54.54;95615.00;5044856;28;20132;-82
2022/09/03 10:12:18;;;;;;;4.30;3.72;;;;;;;21.08;55.12;95604.09;5045969;28;20021;-83
2022/09/03 10:15:11;;;;;;;7.32;3.92;;;;;;;20.88;55.75;95604.44;5045252;28;20025;-83
2022/09/03 10:17:46;;;;;;;4.75;3.53;;;;;;;21.08;54.53;95604.09;5029415;28;20086;-82
2022/09/03 10:20:26;;;;;;;5.97;4.47;;;;;;;21.35;54.32;95600.84;5047069;28;20109;-83
2022/09/03 10:23:14;;;;;;;6.30;4.07;;;;;;;21.40;55.70;95600.09;5044731;28;20043;-83
2022/09/03 10:25:46;;;;;;;4.55;3.47;;;;;;;21.40;54.31;95602.00;5045395;28;20036;-82
2022/09/03 10:28:12;;;;;;;6.15;3.95;;;;;;;21.21;55.28;95597.56;5046278;28;20060;-83
2022/09/03 10:30:50;;;;;;;4.75;3.83;;;;;;;20.96;56.24;95598.66;5028731;28;20540;-82
2022/09/03 10:33:21;;;;;;;5.10;4.25;;;;;;;20.75;57.00;95603.63;5045471;28;20031;-84
2022/09/03 10:35:51;;;;;;;5.28;3.83;;;;;;;21.06;56.03;95606.22;5011571;28;20028;-83
2022/09/03 10:38:28;;;;;;;6.75;3.90;;;;;;;20.84;56.79;95603.28;5045854;28;20542;-82
2022/09/03 10:41:32;;;;;;;10.95;4.28;;;;;;;20.86;57.00;95601.16;5028496;28;20025;-82
2022/09/03 10:44:34;;;;;;;5.05;3.80;;;;;;;21.15;57.91;95592.22;5044694;28;20056;-82
2022/09/03 10:47:18;;;;;;;9.10;4.30;;;;;;;21.15;55.60;95600.41;5044599;28;20053;-83
2022/09/03 10:50:07;;;;;;;12.55;4.35;;;;;;;20.95;57.22;95599.75;5029630;28;20024;-83
2022/09/03 10:53:03;;;;;;;56.08;8.77;;;;;;;20.82;58.35;95606.22;5044635;28;20071;-82
2022/09/03 10:55:47;;;;;;;11.93;4.75;;;;;;;20.96;57.52;95597.81;5046755;28;20021;-83
2022/09/03 10:58:22;;;;;;;10.70;4.20;;;;;;;20.90;57.81;95605.03;5045539;28;20116;-83
2022/09/03 11:00:57;;;;;;;9.52;5.25;;;;;;;20.87;57.59;95609.09;5045030;28;20037;-82
2022/09/03 11:03:41;;;;;;;6.95;4.90;;;;;;;21.21;57.83;95602.19;5028897;28;20112;-83
2022/09/03 11:06:23;;;;;;;8.77;4.80;;;;;;;21.33;56.61;95604.84;5045392;28;20029;-82
2022/09/03 11:09:36;;;;;;;5.55;4.40;;;;;;;21.33;56.42;95594.78;5044342;28;20665;-83
2022/09/03 11:12:07;;;;;;;6.38;4.72;;;;;;;21.31;56.72;95601.56;5044605;28;20116;-84
2022/09/03 11:14:39;;;;;;;6.10;4.78;;;;;;;21.32;56.60;95595.88;5027094;28;20572;-84
2022/09/03 11:17:40;;;;;;;5.05;4.13;;;;;;;21.59;54.81;95603.47;5028765;28;20144;-83
2022/09/03 11:20:14;;;;;;;7.53;4.18;;;;;;;21.29;55.84;95604.53;5020980;28;20415;-84
2022/09/03 11:22:41;;;;;;;7.03;4.50;;;;;;;21.40;56.55;95610.19;5045056;28;20655;-85
2022/09/03 11:25:07;;;;;;;6.05;4.07;;;;;;;21.68;54.71;95603.91;5028829;28;20094;-83
2022/09/03 11:28:08;;;;;;;5.50;4.07;;;;;;;21.69;55.18;95599.28;5044817;28;20055;-83
2022/09/03 11:30:47;;;;;;;5.35;4.50;;;;;;;21.76;55.27;95602.72;5041585;28;20037;-82
2022/09/03 11:33:13;;;;;;;6.13;4.35;;;;;;;21.91;54.42;95609.56;5050781;28;20033;-83
2022/09/03 11:35:40;;;;;;;11.05;5.55;;;;;;;21.98;55.41;95596.56;5036512;28;20115;-82
2022/09/03 11:38:32;;;;;;;8.27;4.45;;;;;;;22.12;54.94;95599.00;5036231;28;20518;-83
2022/09/03 11:40:57;;;;;;;5.05;4.38;;;;;;;22.20;54.80;95599.41;5051999;28;20182;-83
2022/09/03 11:43:23;;;;;;;4.80;4.10;;;;;;;22.34;54.44;95597.16;5052067;28;20021;-82
2022/09/03 11:45:49;;;;;;;6.22;4.35;;;;;;;22.26;55.08;95594.88;5051701;28;20462;-83
2022/09/03 11:48:44;;;;;;;7.47;4.72;;;;;;;22.31;54.76;95596.84;5047537;28;20033;-83
2022/09/03 11:51:32;;;;;;;6.45;4.15;;;;;;;22.45;53.49;95598.19;5045442;28;20037;-84
2022/09/03 11:54:00;;;;;;;6.13;4.43;;;;;;;22.43;53.26;95599.47;5047532;28;20102;-85
2022/09/03 11:56:26;;;;;;;5.97;3.97;;;;;;;22.47;52.54;95606.13;5044267;28;20056;-84
2022/09/03 11:59:13;;;;;;;5.18;4.38;;;;;;;22.70;51.82;95596.94;5026147;28;20067;-82
2022/09/03 12:01:57;;;;;;;5.22;4.20;;;;;;;22.64;52.64;95597.09;5044884;28;20090;-84